sensor_id;sensor_type;location;lat;lon;timestamp;P1;durP1;ratioP1;P2;durP2;ratioP2
18568;SDS011;14780;48.316;-1.050;2022-08-25T00:01:56;2.28;;;1.00;;
18568;SDS011;14780;48.316;-1.050;2022-08-25T00:04:42;2.30;;;1.10;;
18568;SDS011;14780;48.316;-1.050;2022-08-25T00:07:27;2.35;;;1.15;;
18568;SDS011;14780;48.316;-1.050;2022-08-25T00:10:11;1.88;;;0.93;;
18568;SDS011;14780;48.316;-1.050;2022-08-25T00:12:56;2.00;;;0.70;;
18568;SDS011;14780;48.316;-1.050;2022-08-25T00:15:41;2.55;;;1.00;;
18568;SDS011;14780;48.316;-1.050;2022-08-25T00:18:26;2.78;;;1.13;;
18568;SDS011;14780;48.316;-1.050;2022-08-25T00:21:11;2.13;;;0.95;;
18568;SDS011;14780;48.316;-1.050;2022-08-25T00:23:58;1.67;;;0.88;;
18568;SDS011;14780;48.316;-1.050;2022-08-25T00:26:45;2.53;;;1.10;;
18568;SDS011;14780;48.316;-1.050;2022-08-25T00:29:32;2.50;;;1.00;;
18568;SDS011;14780;48.316;-1.050;2022-08-25T00:32:20;2.42;;;1.10;;
18568;SDS011;14780;48.316;-1.050;2022-08-25T00:35:07;2.00;;;1.08;;
18568;SDS011;14780;48.316;-1.050;2022-08-25T00:37:52;2.28;;;1.02;;
18568;SDS011;14780;48.316;-1.050;2022-08-25T00:40:38;2.58;;;0.90;;
18568;SDS011;14780;48.316;-1.050;2022-08-25T00:43:24;1.83;;;0.98;;
18568;SDS011;14780;48.316;-1.050;2022-08-25T00:46:14;1.40;;;0.90;;
18568;SDS011;14780;48.316;-1.050;2022-08-25T00:49:05;1.95;;;1.02;;
18568;SDS011;14780;48.316;-1.050;2022-08-25T00:51:58;1.65;;;0.90;;
18568;SDS011;14780;48.316;-1.050;2022-08-25T00:54:56;2.03;;;1.00;;
18568;SDS011;14780;48.316;-1.050;2022-08-25T01:00:57;1.33;;;0.80;;
18568;SDS011;14780;48.316;-1.050;2022-08-25T01:03:42;2.00;;;1.00;;
18568;SDS011;14780;48.316;-1.050;2022-08-25T01:06:27;1.75;;;0.85;;
18568;SDS011;14780;48.316;-1.050;2022-08-25T01:09:16;3.70;;;1.05;;
18568;SDS011;14780;48.316;-1.050;2022-08-25T01:12:02;1.80;;;0.80;;
18568;SDS011;14780;48.316;-1.050;2022-08-25T01:14:48;2.50;;;0.90;;
18568;SDS011;14780;48.316;-1.050;2022-08-25T01:17:44;1.63;;;0.82;;
18568;SDS011;14780;48.316;-1.050;2022-08-25T01:20:31;1.45;;;0.95;;
18568;SDS011;14780;48.316;-1.050;2022-08-25T01:23:17;2.05;;;1.23;;
18568;SDS011;14780;48.316;-1.050;2022-08-25T01:26:04;2.50;;;1.25;;
18568;SDS011;14780;48.316;-1.050;2022-08-25T01:28:52;1.80;;;0.93;;
18568;SDS011;14780;48.316;-1.050;2022-08-25T01:31:58;1.67;;;0.98;;
18568;SDS011;14780;48.316;-1.050;2022-08-25T01:34:45;1.33;;;0.65;;
18568;SDS011;14780;48.316;-1.050;2022-08-25T01:37:30;1.48;;;0.85;;
18568;SDS011;14780;48.316;-1.050;2022-08-25T01:40:17;1.27;;;0.82;;
18568;SDS011;14780;48.316;-1.050;2022-08-25T01:45:54;1.95;;;0.90;;
18568;SDS011;14780;48.316;-1.050;2022-08-25T01:48:40;1.80;;;0.80;;
18568;SDS011;14780;48.316;-1.050;2022-08-25T01:51:27;1.55;;;0.68;;
18568;SDS011;14780;48.316;-1.050;2022-08-25T01:54:16;1.35;;;0.80;;
18568;SDS011;14780;48.316;-1.050;2022-08-25T01:57:01;2.15;;;0.80;;
18568;SDS011;14780;48.316;-1.050;2022-08-25T01:59:45;1.75;;;0.85;;
18568;SDS011;14780;48.316;-1.050;2022-08-25T02:02:30;1.50;;;0.80;;
18568;SDS011;14780;48.316;-1.050;2022-08-25T02:05:15;1.80;;;0.98;;
18568;SDS011;14780;48.316;-1.050;2022-08-25T02:08:00;1.60;;;0.80;;
18568;SDS011;14780;48.316;-1.050;2022-08-25T02:10:45;1.60;;;0.95;;
18568;SDS011;14780;48.316;-1.050;2022-08-25T02:13:30;1.42;;;0.95;;
18568;SDS011;14780;48.316;-1.050;2022-08-25T02:16:16;2.17;;;0.65;;
18568;SDS011;14780;48.316;-1.050;2022-08-25T02:19:12;1.70;;;0.80;;
18568;SDS011;14780;48.316;-1.050;2022-08-25T02:21:58;1.80;;;0.80;;
18568;SDS011;14780;48.316;-1.050;2022-08-25T02:24:43;1.60;;;0.80;;
18568;SDS011;14780;48.316;-1.050;2022-08-25T02:27:28;1.70;;;1.00;;
18568;SDS011;14780;48.316;-1.050;2022-08-25T02:30:13;1.00;;;0.75;;
18568;SDS011;14780;48.316;-1.050;2022-08-25T02:32:59;1.35;;;0.80;;
18568;SDS011;14780;48.316;-1.050;2022-08-25T02:35:44;1.83;;;0.77;;
18568;SDS011;14780;48.316;-1.050;2022-08-25T02:38:29;1.40;;;0.90;;
18568;SDS011;14780;48.316;-1.050;2022-08-25T02:41:15;1.48;;;0.82;;
18568;SDS011;14780;48.316;-1.050;2022-08-25T02:44:03;1.80;;;1.08;;
18568;SDS011;14780;48.316;-1.050;2022-08-25T02:46:48;1.42;;;0.70;;
18568;SDS011;14780;48.316;-1.050;2022-08-25T02:49:33;1.40;;;0.73;;
18568;SDS011;14780;48.316;-1.050;2022-08-25T02:52:18;2.05;;;0.70;;
18568;SDS011;14780;48.316;-1.050;2022-08-25T02:55:03;1.35;;;0.70;;
18568;SDS011;14780;48.316;-1.050;2022-08-25T02:57:50;1.10;;;0.80;;
18568;SDS011;14780;48.316;-1.050;2022-08-25T03:00:35;1.75;;;0.70;;
18568;SDS011;14780;48.316;-1.050;2022-08-25T03:03:20;1.52;;;0.70;;
18568;SDS011;14780;48.316;-1.050;2022-08-25T03:06:06;1.52;;;0.85;;
18568;SDS011;14780;48.316;-1.050;2022-08-25T03:08:52;1.20;;;0.75;;
18568;SDS011;14780;48.316;-1.050;2022-08-25T03:11:38;1.42;;;0.90;;
18568;SDS011;14780;48.316;-1.050;2022-08-25T03:14:23;1.52;;;0.70;;
18568;SDS011;14780;48.316;-1.050;2022-08-25T03:17:08;1.17;;;0.70;;
18568;SDS011;14780;48.316;-1.050;2022-08-25T03:19:53;1.70;;;0.93;;
18568;SDS011;14780;48.316;-1.050;2022-08-25T03:22:38;1.88;;;0.73;;
18568;SDS011;14780;48.316;-1.050;2022-08-25T03:25:23;1.70;;;0.60;;
18568;SDS011;14780;48.316;-1.050;2022-08-25T03:28:26;8.50;;;7.78;;
18568;SDS011;14780;48.316;-1.050;2022-08-25T03:31:15;160.88;;;148.50;;
18568;SDS011;14780;48.316;-1.050;2022-08-25T03:34:01;205.75;;;188.55;;
18568;SDS011;14780;48.316;-1.050;2022-08-25T03:36:47;295.88;;;268.58;;
18568;SDS011;14780;48.316;-1.050;2022-08-25T03:39:34;36.05;;;32.25;;
18568;SDS011;14780;48.316;-1.050;2022-08-25T03:42:19;320.05;;;296.70;;
18568;SDS011;14780;48.316;-1.050;2022-08-25T03:45:04;393.35;;;360.20;;
18568;SDS011;14780;48.316;-1.050;2022-08-25T03:47:51;753.20;;;685.65;;
18568;SDS011;14780;48.316;-1.050;2022-08-25T03:50:36;563.60;;;518.25;;
18568;SDS011;14780;48.316;-1.050;2022-08-25T03:53:28;703.25;;;657.67;;
18568;SDS011;14780;48.316;-1.050;2022-08-25T03:56:13;409.38;;;381.85;;
18568;SDS011;14780;48.316;-1.050;2022-08-25T03:58:58;709.13;;;647.55;;
18568;SDS011;14780;48.316;-1.050;2022-08-25T04:01:43;735.65;;;606.60;;
18568;SDS011;14780;48.316;-1.050;2022-08-25T04:04:29;834.85;;;760.28;;
18568;SDS011;14780;48.316;-1.050;2022-08-25T04:07:14;537.33;;;371.83;;
18568;SDS011;14780;48.316;-1.050;2022-08-25T04:09:59;550.45;;;363.58;;
18568;SDS011;14780;48.316;-1.050;2022-08-25T04:12:44;493.95;;;231.27;;
18568;SDS011;14780;48.316;-1.050;2022-08-25T04:15:31;499.30;;;254.85;;
18568;SDS011;14780;48.316;-1.050;2022-08-25T04:18:17;529.20;;;331.00;;
18568;SDS011;14780;48.316;-1.050;2022-08-25T04:21:03;498.00;;;208.45;;
18568;SDS011;14780;48.316;-1.050;2022-08-25T04:23:48;681.92;;;598.65;;
18568;SDS011;14780;48.316;-1.050;2022-08-25T04:26:45;459.73;;;251.48;;
18568;SDS011;14780;48.316;-1.050;2022-08-25T04:29:32;435.80;;;170.95;;
18568;SDS011;14780;48.316;-1.050;2022-08-25T04:32:17;148.35;;;140.27;;
18568;SDS011;14780;48.316;-1.050;2022-08-25T04:35:02;370.95;;;143.93;;
18568;SDS011;14780;48.316;-1.050;2022-08-25T04:37:48;277.10;;;152.60;;
18568;SDS011;14780;48.316;-1.050;2022-08-25T04:40:33;209.38;;;167.00;;
18568;SDS011;14780;48.316;-1.050;2022-08-25T04:43:18;314.33;;;230.88;;
18568;SDS011;14780;48.316;-1.050;2022-08-25T04:46:07;279.88;;;144.73;;
18568;SDS011;14780;48.316;-1.050;2022-08-25T04:48:55;501.27;;;296.63;;
18568;SDS011;14780;48.316;-1.050;2022-08-25T04:51:41;512.20;;;172.13;;
18568;SDS011;14780;48.316;-1.050;2022-08-25T04:54:27;574.22;;;325.20;;
18568;SDS011;14780;48.316;-1.050;2022-08-25T04:57:11;526.20;;;376.83;;
18568;SDS011;14780;48.316;-1.050;2022-08-25T04:59:56;577.42;;;265.25;;
18568;SDS011;14780;48.316;-1.050;2022-08-25T05:02:40;547.33;;;377.02;;
18568;SDS011;14780;48.316;-1.050;2022-08-25T05:05:25;343.27;;;180.93;;
18568;SDS011;14780;48.316;-1.050;2022-08-25T05:08:10;713.25;;;629.20;;
18568;SDS011;14780;48.316;-1.050;2022-08-25T05:10:54;542.13;;;295.25;;
18568;SDS011;14780;48.316;-1.050;2022-08-25T05:13:40;439.23;;;180.35;;
18568;SDS011;14780;48.316;-1.050;2022-08-25T05:16:25;495.17;;;264.88;;
18568;SDS011;14780;48.316;-1.050;2022-08-25T05:19:11;482.23;;;291.80;;
18568;SDS011;14780;48.316;-1.050;2022-08-25T05:21:55;520.50;;;289.45;;
18568;SDS011;14780;48.316;-1.050;2022-08-25T05:24:40;485.13;;;278.02;;
18568;SDS011;14780;48.316;-1.050;2022-08-25T05:27:25;445.85;;;245.05;;
18568;SDS011;14780;48.316;-1.050;2022-08-25T05:30:09;495.98;;;422.50;;
18568;SDS011;14780;48.316;-1.050;2022-08-25T05:32:55;489.42;;;384.27;;
18568;SDS011;14780;48.316;-1.050;2022-08-25T05:35:39;443.60;;;219.75;;
18568;SDS011;14780;48.316;-1.050;2022-08-25T05:38:24;500.45;;;393.65;;
18568;SDS011;14780;48.316;-1.050;2022-08-25T05:41:11;829.97;;;758.42;;
18568;SDS011;14780;48.316;-1.050;2022-08-25T05:43:58;861.05;;;788.55;;
18568;SDS011;14780;48.316;-1.050;2022-08-25T05:46:43;678.35;;;611.75;;
18568;SDS011;14780;48.316;-1.050;2022-08-25T05:49:27;501.30;;;312.00;;
18568;SDS011;14780;48.316;-1.050;2022-08-25T05:52:12;426.83;;;168.02;;
18568;SDS011;14780;48.316;-1.050;2022-08-25T05:54:57;429.98;;;180.38;;
18568;SDS011;14780;48.316;-1.050;2022-08-25T05:57:42;453.27;;;335.95;;
18568;SDS011;14780;48.316;-1.050;2022-08-25T06:00:26;417.70;;;145.10;;
18568;SDS011;14780;48.316;-1.050;2022-08-25T06:03:11;470.33;;;298.02;;
18568;SDS011;14780;48.316;-1.050;2022-08-25T06:06:04;453.45;;;279.13;;
18568;SDS011;14780;48.316;-1.050;2022-08-25T06:08:50;451.05;;;157.82;;
18568;SDS011;14780;48.316;-1.050;2022-08-25T06:11:38;430.38;;;177.38;;
18568;SDS011;14780;48.316;-1.050;2022-08-25T06:14:23;414.25;;;204.98;;
18568;SDS011;14780;48.316;-1.050;2022-08-25T06:17:09;452.63;;;288.63;;
18568;SDS011;14780;48.316;-1.050;2022-08-25T06:19:54;402.00;;;234.57;;
18568;SDS011;14780;48.316;-1.050;2022-08-25T06:22:40;226.23;;;61.33;;
18568;SDS011;14780;48.316;-1.050;2022-08-25T06:25:25;5.75;;;3.70;;
18568;SDS011;14780;48.316;-1.050;2022-08-25T06:28:10;108.72;;;38.63;;
18568;SDS011;14780;48.316;-1.050;2022-08-25T06:30:58;119.20;;;38.53;;
18568;SDS011;14780;48.316;-1.050;2022-08-25T06:33:44;131.35;;;40.45;;
18568;SDS011;14780;48.316;-1.050;2022-08-25T06:36:29;24.40;;;9.60;;
18568;SDS011;14780;48.316;-1.050;2022-08-25T06:39:15;13.95;;;9.10;;
18568;SDS011;14780;48.316;-1.050;2022-08-25T06:42:00;65.57;;;18.92;;
18568;SDS011;14780;48.316;-1.050;2022-08-25T06:44:45;87.07;;;25.88;;
18568;SDS011;14780;48.316;-1.050;2022-08-25T06:47:30;128.88;;;41.90;;
18568;SDS011;14780;48.316;-1.050;2022-08-25T06:50:15;139.90;;;40.53;;
18568;SDS011;14780;48.316;-1.050;2022-08-25T06:53:00;131.50;;;39.95;;
18568;SDS011;14780;48.316;-1.050;2022-08-25T06:55:54;132.90;;;39.83;;
18568;SDS011;14780;48.316;-1.050;2022-08-25T06:58:40;89.63;;;27.58;;
18568;SDS011;14780;48.316;-1.050;2022-08-25T07:01:25;79.47;;;23.02;;
18568;SDS011;14780;48.316;-1.050;2022-08-25T07:04:10;136.00;;;41.28;;
18568;SDS011;14780;48.316;-1.050;2022-08-25T07:06:54;139.68;;;41.72;;
18568;SDS011;14780;48.316;-1.050;2022-08-25T07:09:39;132.43;;;37.85;;
18568;SDS011;14780;48.316;-1.050;2022-08-25T07:12:24;140.82;;;42.45;;
18568;SDS011;14780;48.316;-1.050;2022-08-25T07:15:08;132.45;;;40.97;;
18568;SDS011;14780;48.316;-1.050;2022-08-25T07:17:53;122.43;;;37.22;;
18568;SDS011;14780;48.316;-1.050;2022-08-25T07:20:40;91.18;;;26.85;;
18568;SDS011;14780;48.316;-1.050;2022-08-25T07:23:26;2.47;;;1.05;;
18568;SDS011;14780;48.316;-1.050;2022-08-25T07:26:14;18.98;;;17.02;;
18568;SDS011;14780;48.316;-1.050;2022-08-25T07:29:02;3.65;;;2.15;;
18568;SDS011;14780;48.316;-1.050;2022-08-25T07:31:59;19.67;;;5.63;;
18568;SDS011;14780;48.316;-1.050;2022-08-25T07:34:44;125.57;;;36.53;;
18568;SDS011;14780;48.316;-1.050;2022-08-25T07:37:49;133.25;;;39.08;;
18568;SDS011;14780;48.316;-1.050;2022-08-25T07:40:36;46.67;;;44.35;;
18568;SDS011;14780;48.316;-1.050;2022-08-25T07:43:21;8.65;;;3.30;;
18568;SDS011;14780;48.316;-1.050;2022-08-25T07:46:06;96.93;;;30.25;;
18568;SDS011;14780;48.316;-1.050;2022-08-25T07:48:51;89.32;;;27.20;;
18568;SDS011;14780;48.316;-1.050;2022-08-25T07:51:35;86.40;;;31.45;;
18568;SDS011;14780;48.316;-1.050;2022-08-25T07:54:20;78.70;;;28.02;;
18568;SDS011;14780;48.316;-1.050;2022-08-25T07:57:06;81.07;;;27.13;;
18568;SDS011;14780;48.316;-1.050;2022-08-25T07:59:52;124.13;;;40.45;;
18568;SDS011;14780;48.316;-1.050;2022-08-25T08:02:38;127.68;;;40.85;;
18568;SDS011;14780;48.316;-1.050;2022-08-25T08:05:24;136.50;;;40.50;;
18568;SDS011;14780;48.316;-1.050;2022-08-25T08:08:10;137.63;;;41.28;;
18568;SDS011;14780;48.316;-1.050;2022-08-25T08:10:54;122.50;;;39.45;;
18568;SDS011;14780;48.316;-1.050;2022-08-25T08:13:39;127.35;;;39.55;;
18568;SDS011;14780;48.316;-1.050;2022-08-25T08:16:26;126.75;;;39.53;;
18568;SDS011;14780;48.316;-1.050;2022-08-25T08:19:13;128.30;;;39.70;;
18568;SDS011;14780;48.316;-1.050;2022-08-25T08:21:58;133.80;;;40.20;;
18568;SDS011;14780;48.316;-1.050;2022-08-25T08:24:43;125.10;;;36.03;;
18568;SDS011;14780;48.316;-1.050;2022-08-25T08:27:28;131.00;;;41.10;;
18568;SDS011;14780;48.316;-1.050;2022-08-25T08:30:13;124.47;;;40.15;;
18568;SDS011;14780;48.316;-1.050;2022-08-25T08:32:58;133.52;;;39.25;;
18568;SDS011;14780;48.316;-1.050;2022-08-25T08:35:43;119.47;;;36.38;;
18568;SDS011;14780;48.316;-1.050;2022-08-25T08:38:27;125.68;;;39.60;;
18568;SDS011;14780;48.316;-1.050;2022-08-25T08:56:42;93.75;;;29.63;;
18568;SDS011;14780;48.316;-1.050;2022-08-25T08:59:30;106.60;;;35.75;;
18568;SDS011;14780;48.316;-1.050;2022-08-25T09:02:34;72.00;;;22.00;;
18568;SDS011;14780;48.316;-1.050;2022-08-25T09:05:49;95.35;;;28.55;;
18568;SDS011;14780;48.316;-1.050;2022-08-25T09:08:38;130.75;;;40.00;;
18568;SDS011;14780;48.316;-1.050;2022-08-25T09:23:28;130.18;;;40.67;;
18568;SDS011;14780;48.316;-1.050;2022-08-25T09:26:58;124.00;;;40.15;;
18568;SDS011;14780;48.316;-1.050;2022-08-25T09:30:03;136.10;;;40.90;;
18568;SDS011;14780;48.316;-1.050;2022-08-25T09:32:53;136.13;;;41.20;;
18568;SDS011;14780;48.316;-1.050;2022-08-25T09:35:46;131.95;;;41.28;;
18568;SDS011;14780;48.316;-1.050;2022-08-25T09:38:34;124.97;;;41.25;;
18568;SDS011;14780;48.316;-1.050;2022-08-25T09:41:33;131.27;;;42.20;;
18568;SDS011;14780;48.316;-1.050;2022-08-25T09:44:38;130.32;;;41.97;;
18568;SDS011;14780;48.316;-1.050;2022-08-25T09:47:26;130.65;;;40.40;;
18568;SDS011;14780;48.316;-1.050;2022-08-25T09:50:15;137.77;;;40.85;;
18568;SDS011;14780;48.316;-1.050;2022-08-25T09:53:10;132.57;;;40.45;;
18568;SDS011;14780;48.316;-1.050;2022-08-25T09:56:02;130.80;;;40.67;;
18568;SDS011;14780;48.316;-1.050;2022-08-25T09:58:50;123.57;;;38.20;;
18568;SDS011;14780;48.316;-1.050;2022-08-25T10:01:46;128.68;;;39.53;;
18568;SDS011;14780;48.316;-1.050;2022-08-25T10:04:33;125.85;;;39.38;;
18568;SDS011;14780;48.316;-1.050;2022-08-25T10:10:22;115.18;;;39.03;;
18568;SDS011;14780;48.316;-1.050;2022-08-25T10:13:20;123.95;;;40.13;;
18568;SDS011;14780;48.316;-1.050;2022-08-25T10:16:22;126.03;;;39.78;;
18568;SDS011;14780;48.316;-1.050;2022-08-25T10:22:22;115.80;;;40.53;;
18568;SDS011;14780;48.316;-1.050;2022-08-25T10:25:15;83.82;;;36.55;;
18568;SDS011;14780;48.316;-1.050;2022-08-25T10:31:35;101.43;;;38.55;;
18568;SDS011;14780;48.316;-1.050;2022-08-25T10:34:40;125.05;;;40.35;;
18568;SDS011;14780;48.316;-1.050;2022-08-25T10:43:31;113.20;;;39.78;;
18568;SDS011;14780;48.316;-1.050;2022-08-25T10:46:50;117.95;;;42.63;;
18568;SDS011;14780;48.316;-1.050;2022-08-25T10:50:03;92.55;;;39.33;;
18568;SDS011;14780;48.316;-1.050;2022-08-25T10:56:08;100.13;;;38.42;;
18568;SDS011;14780;48.316;-1.050;2022-08-25T11:05:07;99.35;;;40.22;;
18568;SDS011;14780;48.316;-1.050;2022-08-25T11:17:12;88.60;;;37.83;;
18568;SDS011;14780;48.316;-1.050;2022-08-25T11:20:03;98.53;;;38.95;;
18568;SDS011;14780;48.316;-1.050;2022-08-25T11:26:12;78.72;;;35.85;;
18568;SDS011;14780;48.316;-1.050;2022-08-25T11:29:08;80.47;;;36.42;;
18568;SDS011;14780;48.316;-1.050;2022-08-25T11:31:59;76.57;;;35.45;;
18568;SDS011;14780;48.316;-1.050;2022-08-25T11:34:44;72.57;;;35.20;;
18568;SDS011;14780;48.316;-1.050;2022-08-25T11:37:29;67.22;;;34.05;;
18568;SDS011;14780;48.316;-1.050;2022-08-25T11:40:27;64.63;;;33.53;;
18568;SDS011;14780;48.316;-1.050;2022-08-25T12:04:39;65.30;;;33.35;;
18568;SDS011;14780;48.316;-1.050;2022-08-25T12:07:26;67.30;;;34.10;;
18568;SDS011;14780;48.316;-1.050;2022-08-25T12:10:23;68.55;;;34.13;;
18568;SDS011;14780;48.316;-1.050;2022-08-25T12:16:43;77.90;;;35.83;;
18568;SDS011;14780;48.316;-1.050;2022-08-25T12:19:50;71.85;;;34.80;;
18568;SDS011;14780;48.316;-1.050;2022-08-25T12:22:40;72.88;;;35.33;;
18568;SDS011;14780;48.316;-1.050;2022-08-25T12:25:35;71.88;;;35.30;;
18568;SDS011;14780;48.316;-1.050;2022-08-25T12:37:34;68.55;;;34.53;;
18568;SDS011;14780;48.316;-1.050;2022-08-25T12:43:30;69.15;;;34.45;;
18568;SDS011;14780;48.316;-1.050;2022-08-25T12:49:27;86.43;;;37.78;;
18568;SDS011;14780;48.316;-1.050;2022-08-25T12:52:17;72.85;;;35.05;;
18568;SDS011;14780;48.316;-1.050;2022-08-25T12:55:08;71.32;;;34.83;;
18568;SDS011;14780;48.316;-1.050;2022-08-25T12:57:55;82.13;;;36.38;;
18568;SDS011;14780;48.316;-1.050;2022-08-25T13:03:49;78.40;;;35.95;;
18568;SDS011;14780;48.316;-1.050;2022-08-25T13:12:24;76.82;;;35.67;;
18568;SDS011;14780;48.316;-1.050;2022-08-25T13:15:31;77.28;;;35.78;;
18568;SDS011;14780;48.316;-1.050;2022-08-25T13:18:30;78.13;;;36.28;;
18568;SDS011;14780;48.316;-1.050;2022-08-25T13:21:22;76.43;;;35.50;;
18568;SDS011;14780;48.316;-1.050;2022-08-25T13:24:29;69.30;;;34.30;;
18568;SDS011;14780;48.316;-1.050;2022-08-25T13:27:25;84.03;;;37.30;;
18568;SDS011;14780;48.316;-1.050;2022-08-25T13:30:23;76.80;;;36.28;;
18568;SDS011;14780;48.316;-1.050;2022-08-25T13:33:19;71.80;;;34.83;;
18568;SDS011;14780;48.316;-1.050;2022-08-25T13:36:06;66.65;;;33.83;;
18568;SDS011;14780;48.316;-1.050;2022-08-25T13:39:18;78.80;;;36.58;;
18568;SDS011;14780;48.316;-1.050;2022-08-25T13:42:10;76.35;;;35.97;;
18568;SDS011;14780;48.316;-1.050;2022-08-25T13:44:59;76.95;;;35.50;;
18568;SDS011;14780;48.316;-1.050;2022-08-25T13:47:44;81.35;;;36.85;;
18568;SDS011;14780;48.316;-1.050;2022-08-25T13:50:31;77.07;;;35.65;;
18568;SDS011;14780;48.316;-1.050;2022-08-25T13:53:21;83.82;;;37.00;;
18568;SDS011;14780;48.316;-1.050;2022-08-25T13:56:08;75.80;;;35.70;;
18568;SDS011;14780;48.316;-1.050;2022-08-25T13:58:54;71.93;;;35.00;;
18568;SDS011;14780;48.316;-1.050;2022-08-25T14:01:45;71.95;;;35.10;;
18568;SDS011;14780;48.316;-1.050;2022-08-25T14:10:18;66.85;;;33.58;;
18568;SDS011;14780;48.316;-1.050;2022-08-25T14:16:21;72.22;;;34.97;;
18568;SDS011;14780;48.316;-1.050;2022-08-25T14:19:07;65.85;;;34.25;;
18568;SDS011;14780;48.316;-1.050;2022-08-25T14:22:01;68.78;;;34.15;;
18568;SDS011;14780;48.316;-1.050;2022-08-25T14:24:46;65.75;;;33.80;;
18568;SDS011;14780;48.316;-1.050;2022-08-25T14:27:31;88.32;;;37.65;;
18568;SDS011;14780;48.316;-1.050;2022-08-25T14:30:15;85.82;;;43.05;;
18568;SDS011;14780;48.316;-1.050;2022-08-25T14:33:01;72.93;;;35.38;;
18568;SDS011;14780;48.316;-1.050;2022-08-25T14:35:47;69.93;;;34.58;;
18568;SDS011;14780;48.316;-1.050;2022-08-25T14:38:34;70.25;;;34.08;;
18568;SDS011;14780;48.316;-1.050;2022-08-25T14:41:22;72.68;;;34.42;;
18568;SDS011;14780;48.316;-1.050;2022-08-25T14:44:09;75.75;;;35.17;;
18568;SDS011;14780;48.316;-1.050;2022-08-25T14:46:55;73.63;;;34.47;;
18568;SDS011;14780;48.316;-1.050;2022-08-25T14:49:42;71.35;;;34.50;;
18568;SDS011;14780;48.316;-1.050;2022-08-25T14:52:28;86.22;;;37.08;;
18568;SDS011;14780;48.316;-1.050;2022-08-25T14:55:13;102.38;;;42.30;;
18568;SDS011;14780;48.316;-1.050;2022-08-25T14:57:58;89.88;;;39.90;;
18568;SDS011;14780;48.316;-1.050;2022-08-25T15:00:43;83.93;;;37.13;;
18568;SDS011;14780;48.316;-1.050;2022-08-25T15:03:30;75.93;;;35.22;;
18568;SDS011;14780;48.316;-1.050;2022-08-25T15:06:23;81.38;;;36.88;;
18568;SDS011;14780;48.316;-1.050;2022-08-25T15:09:10;90.70;;;37.42;;
18568;SDS011;14780;48.316;-1.050;2022-08-25T15:11:58;86.47;;;37.70;;
18568;SDS011;14780;48.316;-1.050;2022-08-25T15:14:43;95.43;;;37.90;;
18568;SDS011;14780;48.316;-1.050;2022-08-25T15:17:28;98.80;;;41.15;;
18568;SDS011;14780;48.316;-1.050;2022-08-25T15:20:13;74.65;;;35.30;;
18568;SDS011;14780;48.316;-1.050;2022-08-25T15:22:58;68.95;;;34.25;;
18568;SDS011;14780;48.316;-1.050;2022-08-25T15:25:42;61.55;;;32.85;;
18568;SDS011;14780;48.316;-1.050;2022-08-25T15:28:30;65.60;;;35.65;;
18568;SDS011;14780;48.316;-1.050;2022-08-25T15:31:15;61.42;;;33.60;;
18568;SDS011;14780;48.316;-1.050;2022-08-25T15:34:03;55.22;;;32.03;;
18568;SDS011;14780;48.316;-1.050;2022-08-25T15:36:49;63.63;;;33.45;;
18568;SDS011;14780;48.316;-1.050;2022-08-25T15:39:34;70.80;;;37.15;;
18568;SDS011;14780;48.316;-1.050;2022-08-25T15:42:20;70.22;;;39.67;;
18568;SDS011;14780;48.316;-1.050;2022-08-25T15:45:05;61.42;;;33.08;;
18568;SDS011;14780;48.316;-1.050;2022-08-25T15:47:50;62.78;;;33.45;;
18568;SDS011;14780;48.316;-1.050;2022-08-25T15:50:35;57.80;;;32.00;;
18568;SDS011;14780;48.316;-1.050;2022-08-25T15:53:20;78.07;;;36.50;;
18568;SDS011;14780;48.316;-1.050;2022-08-25T15:56:08;70.40;;;36.20;;
18568;SDS011;14780;48.316;-1.050;2022-08-25T15:58:56;70.03;;;35.83;;
18568;SDS011;14780;48.316;-1.050;2022-08-25T16:01:41;76.63;;;39.85;;
18568;SDS011;14780;48.316;-1.050;2022-08-25T16:04:28;60.40;;;34.05;;
18568;SDS011;14780;48.316;-1.050;2022-08-25T16:07:15;59.13;;;32.08;;
18568;SDS011;14780;48.316;-1.050;2022-08-25T16:10:00;53.92;;;32.15;;
18568;SDS011;14780;48.316;-1.050;2022-08-25T16:12:45;40.10;;;27.05;;
18568;SDS011;14780;48.316;-1.050;2022-08-25T16:15:30;47.50;;;29.45;;
18568;SDS011;14780;48.316;-1.050;2022-08-25T16:18:16;48.80;;;30.00;;
18568;SDS011;14780;48.316;-1.050;2022-08-25T16:21:01;47.33;;;29.80;;
18568;SDS011;14780;48.316;-1.050;2022-08-25T16:23:46;53.65;;;31.15;;
18568;SDS011;14780;48.316;-1.050;2022-08-25T16:26:32;41.20;;;28.05;;
18568;SDS011;14780;48.316;-1.050;2022-08-25T16:29:19;41.45;;;27.65;;
18568;SDS011;14780;48.316;-1.050;2022-08-25T16:32:04;40.15;;;27.25;;
18568;SDS011;14780;48.316;-1.050;2022-08-25T16:34:50;38.38;;;26.33;;
18568;SDS011;14780;48.316;-1.050;2022-08-25T16:37:35;52.67;;;31.23;;
18568;SDS011;14780;48.316;-1.050;2022-08-25T16:40:19;49.60;;;31.02;;
18568;SDS011;14780;48.316;-1.050;2022-08-25T16:43:07;53.10;;;31.25;;
18568;SDS011;14780;48.316;-1.050;2022-08-25T16:45:59;48.42;;;30.23;;
18568;SDS011;14780;48.316;-1.050;2022-08-25T16:48:49;51.28;;;30.30;;
18568;SDS011;14780;48.316;-1.050;2022-08-25T16:51:34;43.10;;;28.83;;
18568;SDS011;14780;48.316;-1.050;2022-08-25T16:54:20;46.55;;;29.83;;
18568;SDS011;14780;48.316;-1.050;2022-08-25T16:57:24;52.55;;;31.35;;
18568;SDS011;14780;48.316;-1.050;2022-08-25T17:00:10;59.50;;;32.55;;
18568;SDS011;14780;48.316;-1.050;2022-08-25T17:02:58;56.17;;;31.60;;
18568;SDS011;14780;48.316;-1.050;2022-08-25T17:05:44;47.22;;;30.10;;
18568;SDS011;14780;48.316;-1.050;2022-08-25T17:08:29;47.28;;;29.60;;
18568;SDS011;14780;48.316;-1.050;2022-08-25T17:11:25;44.38;;;28.63;;
18568;SDS011;14780;48.316;-1.050;2022-08-25T17:14:14;55.88;;;31.63;;
18568;SDS011;14780;48.316;-1.050;2022-08-25T17:17:01;63.60;;;35.90;;
18568;SDS011;14780;48.316;-1.050;2022-08-25T17:19:46;47.10;;;29.80;;
18568;SDS011;14780;48.316;-1.050;2022-08-25T17:22:32;71.15;;;34.67;;
18568;SDS011;14780;48.316;-1.050;2022-08-25T17:25:17;49.97;;;30.27;;
18568;SDS011;14780;48.316;-1.050;2022-08-25T17:28:02;68.03;;;33.80;;
18568;SDS011;14780;48.316;-1.050;2022-08-25T17:30:47;45.10;;;28.70;;
18568;SDS011;14780;48.316;-1.050;2022-08-25T17:33:32;37.55;;;26.35;;
18568;SDS011;14780;48.316;-1.050;2022-08-25T17:36:18;37.53;;;26.45;;
18568;SDS011;14780;48.316;-1.050;2022-08-25T17:39:03;52.22;;;32.63;;
18568;SDS011;14780;48.316;-1.050;2022-08-25T17:41:49;47.50;;;29.80;;
18568;SDS011;14780;48.316;-1.050;2022-08-25T17:44:34;26.45;;;22.10;;
18568;SDS011;14780;48.316;-1.050;2022-08-25T17:50:04;48.05;;;29.65;;
18568;SDS011;14780;48.316;-1.050;2022-08-25T17:55:34;48.30;;;30.17;;
18568;SDS011;14780;48.316;-1.050;2022-08-25T17:58:19;33.90;;;25.60;;
18568;SDS011;14780;48.316;-1.050;2022-08-25T18:01:04;42.75;;;28.20;;
18568;SDS011;14780;48.316;-1.050;2022-08-25T18:03:50;46.50;;;29.52;;
18568;SDS011;14780;48.316;-1.050;2022-08-25T18:06:36;78.38;;;37.50;;
18568;SDS011;14780;48.316;-1.050;2022-08-25T18:09:21;53.22;;;31.40;;
18568;SDS011;14780;48.316;-1.050;2022-08-25T18:12:06;60.58;;;33.75;;
18568;SDS011;14780;48.316;-1.050;2022-08-25T18:14:51;39.83;;;27.17;;
18568;SDS011;14780;48.316;-1.050;2022-08-25T18:17:36;55.88;;;31.52;;
18568;SDS011;14780;48.316;-1.050;2022-08-25T18:20:21;61.00;;;33.30;;
18568;SDS011;14780;48.316;-1.050;2022-08-25T18:23:06;61.72;;;32.90;;